Terminal Aerodrome Forecast
Issued by NWS

Home | Current Version | Previous Version | Graphics & Text | Print | Product List | Glossary On
Versions: 1 2 3 4 5 6 7 8 9 10 11 12 13 14 15
000
FTUS43 KFGF 182226 AAA
TAFBJI
TAF AMD
KBJI 182226Z 1822/1918 25010KT P6SM VCSH BKN035
      TEMPO 1822/1824 5SM -SHRA
     FM190200 30012KT P6SM OVC020
     FM190800 33010KT P6SM OVC008
     FM191300 36013G21KT P6SM BKN010
     FM191600 01014G23KT P6SM BKN110=

USA.gov is the U.S. government's official web portal to all federal, state and local government web resources and services.